Paganini — V2CL8 — position and weather

sailwx.info

Track history (hours):
 
Tides and Currents Weather Stations Pressure Air Temp Water Temp Dewpoint Dewpoint Depression Visibility Wind Speed Wind Dir Waves Ship Positions

Paganini

Last reported at 2014-Oct-30 23:34 UTC. Time now 2014-Oct-30 23:43 UTC.
Position N 44°21' W 002°11'.

Length 90 m; draft 5.7 m.

Type: Cargo ship. MMSI: 305040000.

Date/timePositionNaut miles runAvg speedWind from/ knotsBaromVisibWave heightAir tempDewpointWater temp
2014-Oct-30 23:34N 44°21' W 002°11'9 8.9
2014-Oct-30 22:34N 44°13' W 002°06'9 8.5
2014-Oct-30 21:33N 44°06' W 001°59'9 9.0
2014-Oct-30 20:33N 43°58' W 001°53'10 8.8
2014-Oct-30 19:28N 43°50' W 001°46'8 8.7
2014-Oct-30 18:33N 43°43' W 001°41'9 8.8
2014-Oct-30 17:32N 43°35' W 001°35'5 4.1
2014-Oct-30 16:21N 43°32' W 001°30'0 0.0
2014-Oct-30 06:30N 43°32' W 001°30'0 0.0
2014-Oct-30 02:27N 43°32' W 001°30'0 0.0
2014-Oct-29 23:27N 43°32' W 001°30'0 0.0
2014-Oct-29 15:33N 43°32' W 001°30'36 8.8
2014-Oct-29 11:27N 44°05' W 001°48'8 9.1
2014-Oct-29 10:33N 44°13' W 001°52'9 9.1
2014-Oct-29 09:33N 44°21' W 001°56'9 9.1
2014-Oct-29 08:33N 44°30' W 001°59'9 9.1
2014-Oct-29 07:33N 44°39' W 002°04'9 9.2
2014-Oct-29 06:33N 44°47' W 002°08'10 9.5
2014-Oct-29 05:33N 44°57' W 002°12'10 9.5
2014-Oct-29 04:33N 45°06' W 002°16'9 9.3
2014-Oct-29 03:33N 45°15' W 002°20'9 9.0
2014-Oct-29 02:33N 45°23' W 002°24'9 9.2
2014-Oct-29 01:33N 45°32' W 002°28'9 9.0
2014-Oct-29 00:33N 45°41' W 002°31'11 9.1
2014-Oct-28 23:19N 45°51' W 002°38'7 9.3
2014-Oct-28 22:33N 45°58' W 002°41'12 9.7
2014-Oct-28 21:16N 46°10' W 002°47'7 9.4
2014-Oct-28 20:33N 46°16' W 002°49'10 9.5
2014-Oct-28 19:33N 46°25' W 002°54'10 9.6
2014-Oct-28 18:33N 46°34' W 002°58'10 9.4
2014-Oct-28 17:27N 46°44' W 003°03'11 8.9
2014-Oct-28 16:12N 46°55' W 003°08'6 8.7
2014-Oct-28 15:33N 47°00' W 003°10'9 8.7
2014-Oct-28 14:32N 47°08' W 003°14'9 8.6
2014-Oct-28 13:33N 47°16' W 003°19'8 8.3
2014-Oct-28 12:34N 47°25' W 003°20'9 8.6
2014-Oct-28 11:34N 47°33' W 003°21'9 8.7
2014-Oct-28 10:33N 47°42' W 003°22'2 2.3
2014-Oct-28 09:31N 47°44' W 003°21'0 0.0
2014-Oct-28 08:31N 47°44' W 003°21'0 0.0
2014-Oct-28 07:31N 47°44' W 003°21'0 0.0
2014-Oct-28 06:31N 47°44' W 003°21'0 0.0
2014-Oct-28 05:31N 47°44' W 003°21'0 0.0
2014-Oct-28 04:31N 47°44' W 003°21'0 0.0
2014-Oct-28 03:31N 47°44' W 003°21'0 0.0
2014-Oct-28 02:31N 47°44' W 003°21'0 0.0
2014-Oct-28 01:31N 47°44' W 003°21'0 0.0
2014-Oct-28 00:31N 47°44' W 003°21'0 0.0
2014-Oct-27 23:31N 47°44' W 003°21'0 0.0
2014-Oct-27 22:31N 47°44' W 003°21'0 0.0
2014-Oct-27 21:31N 47°44' W 003°21'0 0.0
2014-Oct-27 20:31N 47°44' W 003°21'0 0.0
2014-Oct-27 19:31N 47°44' W 003°21'0 0.0
2014-Oct-27 18:31N 47°44' W 003°21'0 0.0
2014-Oct-27 17:31N 47°44' W 003°21'0 0.0
2014-Oct-27 16:31N 47°44' W 003°21'0 0.0
2014-Oct-27 15:31N 47°44' W 003°21'0 0.0
2014-Oct-27 14:31N 47°44' W 003°21'0 0.0
2014-Oct-27 13:31N 47°44' W 003°21'0 0.0
2014-Oct-27 12:31N 47°44' W 003°21'0 0.0
2014-Oct-27 11:31N 47°44' W 003°21'0 0.0
2014-Oct-27 10:31N 47°44' W 003°21'0 0.0
2014-Oct-27 09:31N 47°44' W 003°21'0 0.0
2014-Oct-27 08:31N 47°44' W 003°21'0 0.0
2014-Oct-27 07:31N 47°44' W 003°21'0 0.0
2014-Oct-27 06:31N 47°44' W 003°21'0 0.1
2014-Oct-27 05:33N 47°44' W 003°21'6 5.9
2014-Oct-27 04:33N 47°40' W 003°28'15 7.3
2014-Oct-27 02:33N 47°37' W 003°49'36 7.2
2014-Oct-26 21:33N 47°46' W 004°41'7 7.0
2014-Oct-26 20:33N 47°50' W 004°50'8 6.8
2014-Oct-26 19:26N 47°54' W 004°59'7 7.6
2014-Oct-26 18:33N 47°58' W 005°07'8 8.1
2014-Oct-26 17:33N 48°04' W 005°15'7 7.0
2014-Oct-26 16:33N 48°10' W 005°21'14 7.0
2014-Oct-26 14:33N 48°20' W 005°35'15 7.6
2014-Oct-26 12:33N 48°32' W 005°50'132 7.3
2014-Oct-25 18:33N 49°54' W 003°11'15 7.4
2014-Oct-25 16:32N 50°01' W 002°51'113 8.4
2014-Oct-25 03:06N 50°32' W 000°01'6 9.7
2014-Oct-25 02:32N 50°33' E 000°07'9 9.4
2014-Oct-25 01:33N 50°36' E 000°21'9 8.5
2014-Oct-25 00:33N 50°38' E 000°34'8 7.9
2014-Oct-24 23:33N 50°43' E 000°44'7 7.1
2014-Oct-24 22:33N 50°47' E 000°53'7 6.9
2014-Oct-24 21:32N 50°51' E 001°02'8 7.8
2014-Oct-24 20:32N 50°56' E 001°12'9 9.4
2014-Oct-24 19:33N 51°02' E 001°23'9 9.5
2014-Oct-24 18:33N 51°08' E 001°35'9 9.0
2014-Oct-24 17:33N 51°14' E 001°45'8 7.8
2014-Oct-24 16:33N 51°21' E 001°50'7 6.7
2014-Oct-24 15:34N 51°27' E 001°55'6 6.1
2014-Oct-24 14:33N 51°32' E 002°02'6 5.9
2014-Oct-24 13:33N 51°36' E 002°08'13 6.5
2014-Oct-24 11:30N 51°46' E 002°22'47 7.8
2014-Oct-24 05:26N 52°03' E 003°34'7 7.6
2014-Oct-24 04:33N 52°03' E 003°45'6 6.5
2014-Oct-24 03:33N 52°02' E 003°55'9 9.3
2014-Oct-24 02:33N 51°58' E 004°08'2 2.2
2014-Oct-24 01:29N 51°56' E 004°11'0 0.0
2014-Oct-24 00:29N 51°56' E 004°11'0 0.0
2014-Oct-23 23:32N 51°56' E 004°11'0 0.0
2014-Oct-23 22:32N 51°56' E 004°11'0 0.0
2014-Oct-23 21:26N 51°56' E 004°11'0 0.0
2014-Oct-23 20:26N 51°56' E 004°11'0 0.0
2014-Oct-23 19:29N 51°56' E 004°11'0 0.0
2014-Oct-23 18:32N 51°56' E 004°11'0 0.0
2014-Oct-23 17:32N 51°56' E 004°11'0 0.0
2014-Oct-23 16:29N 51°56' E 004°11'0 0.0
2014-Oct-23 15:29N 51°56' E 004°11'0 0.0
2014-Oct-23 14:32N 51°56' E 004°11'0 0.0
2014-Oct-23 13:32N 51°56' E 004°11'0 0.0
2014-Oct-23 12:32N 51°56' E 004°11'0 0.0
2014-Oct-23 11:32N 51°56' E 004°11'0 0.0
2014-Oct-23 10:32N 51°56' E 004°11'0 0.0
2014-Oct-23 09:32N 51°56' E 004°11'0 0.0
2014-Oct-23 08:32N 51°56' E 004°11'0 0.0
2014-Oct-23 07:32N 51°56' E 004°11'0 0.0
2014-Oct-23 06:32N 51°56' E 004°11'0 0.0
2014-Oct-23 05:32N 51°56' E 004°11'0 0.0
2014-Oct-23 04:32N 51°56' E 004°11'0 0.0
2014-Oct-23 03:32N 51°56' E 004°11'0 0.0
2014-Oct-23 02:32N 51°56' E 004°11'0 0.0
2014-Oct-23 01:32N 51°56' E 004°11'0 0.0
2014-Oct-23 00:32N 51°56' E 004°11'0 0.0
2014-Oct-22 23:32N 51°56' E 004°11'0 0.0
2014-Oct-22 22:32N 51°56' E 004°11'0 0.0
2014-Oct-22 21:32N 51°56' E 004°11'0 0.0
2014-Oct-22 20:32N 51°56' E 004°11'0 0.0
2014-Oct-22 19:32N 51°56' E 004°11'0 0.0
2014-Oct-22 18:32N 51°56' E 004°11'0 0.0
2014-Oct-22 17:32N 51°56' E 004°11'0 0.0
2014-Oct-22 16:29N 51°56' E 004°11'0 0.0
2014-Oct-22 15:23N 51°56' E 004°11'0 0.0
2014-Oct-22 14:32N 51°56' E 004°11'0 0.0
2014-Oct-22 13:32N 51°56' E 004°11'0 0.0
2014-Oct-22 12:32N 51°56' E 004°11'0 0.0
2014-Oct-22 11:32N 51°56' E 004°11'0 0.2
2014-Oct-22 10:32N 51°56' E 004°12'1 0.5
2014-Oct-22 09:33N 51°56' E 004°11'2 1.5
2014-Oct-22 08:31N 51°57' E 004°09'0 0.0
2014-Oct-22 07:31N 51°57' E 004°09'0 0.0
2014-Oct-22 06:31N 51°57' E 004°09'0 0.0
2014-Oct-22 05:31N 51°57' E 004°09'0 0.0
2014-Oct-22 04:31N 51°57' E 004°09'0 0.0
2014-Oct-22 03:31N 51°57' E 004°09'0 0.0
2014-Oct-22 02:31N 51°57' E 004°09'0 0.0
2014-Oct-22 01:31N 51°57' E 004°09'0 0.0
2014-Oct-22 00:31N 51°57' E 004°09'0 0.0
2014-Oct-21 23:31N 51°57' E 004°09'0 0.0
2014-Oct-21 22:31N 51°57' E 004°09'0 0.0
2014-Oct-21 21:31N 51°57' E 004°09'0 0.0
2014-Oct-21 20:28N 51°57' E 004°09'0 0.0
2014-Oct-21 19:28N 51°57' E 004°09'0 0.0
2014-Oct-21 18:31N 51°57' E 004°09'0 0.0
2014-Oct-21 17:31N 51°57' E 004°09'0 0.0
2014-Oct-21 16:31N 51°57' E 004°09'0 0.0
2014-Oct-21 15:31N 51°57' E 004°09'0 0.0
2014-Oct-21 14:28N 51°57' E 004°09'0 0.0
2014-Oct-21 13:31N 51°57' E 004°09'0 0.0
2014-Oct-21 12:31N 51°57' E 004°09'0 0.0
2014-Oct-21 11:31N 51°57' E 004°09'0 0.0
2014-Oct-21 10:31N 51°57' E 004°09'0 0.0
2014-Oct-21 09:31N 51°57' E 004°09'0 0.0
2014-Oct-21 08:31N 51°57' E 004°09'0 0.0
2014-Oct-21 07:31N 51°57' E 004°09'0 0.0
2014-Oct-21 06:31N 51°57' E 004°09'0 0.0
2014-Oct-21 05:31N 51°57' E 004°09'0 0.0
2014-Oct-21 04:31N 51°57' E 004°09'0 0.0
2014-Oct-21 03:31N 51°57' E 004°09'0 0.0
2014-Oct-21 02:28N 51°57' E 004°09'0 0.0
2014-Oct-21 01:31N 51°57' E 004°09'0 0.0
2014-Oct-21 00:31N 51°57' E 004°09'  
Track history (hours):
 
Tides and Currents Weather Stations Pressure Air Temp Water Temp Dewpoint Dewpoint Depression Visibility Wind Speed Wind Dir Waves Ship Positions

Paganini

Last reported at 2014-Oct-30 23:34 UTC. Time now 2014-Oct-30 23:43 UTC.
Position N 44°21' W 002°11'.

Length 90 m; draft 5.7 m.

Type: Cargo ship. MMSI: 305040000.

Date/timePositionNaut miles runAvg speedWind from/ knotsBaromVisibWave heightAir tempDewpointWater temp
2014-Oct-30 23:34N 44°21' W 002°11'9 8.9
2014-Oct-30 22:34N 44°13' W 002°06'9 8.5
2014-Oct-30 21:33N 44°06' W 001°59'9 9.0
2014-Oct-30 20:33N 43°58' W 001°53'10 8.8
2014-Oct-30 19:28N 43°50' W 001°46'8 8.7
2014-Oct-30 18:33N 43°43' W 001°41'9 8.8
2014-Oct-30 17:32N 43°35' W 001°35'5 4.1
2014-Oct-30 16:21N 43°32' W 001°30'0 0.0
2014-Oct-30 06:30N 43°32' W 001°30'0 0.0
2014-Oct-30 02:27N 43°32' W 001°30'0 0.0
2014-Oct-29 23:27N 43°32' W 001°30'0 0.0
2014-Oct-29 15:33N 43°32' W 001°30'36 8.8
2014-Oct-29 11:27N 44°05' W 001°48'8 9.1
2014-Oct-29 10:33N 44°13' W 001°52'9 9.1
2014-Oct-29 09:33N 44°21' W 001°56'9 9.1
2014-Oct-29 08:33N 44°30' W 001°59'9 9.1
2014-Oct-29 07:33N 44°39' W 002°04'9 9.2
2014-Oct-29 06:33N 44°47' W 002°08'10 9.5
2014-Oct-29 05:33N 44°57' W 002°12'10 9.5
2014-Oct-29 04:33N 45°06' W 002°16'9 9.3
2014-Oct-29 03:33N 45°15' W 002°20'9 9.0
2014-Oct-29 02:33N 45°23' W 002°24'9 9.2
2014-Oct-29 01:33N 45°32' W 002°28'9 9.0
2014-Oct-29 00:33N 45°41' W 002°31'11 9.1
2014-Oct-28 23:19N 45°51' W 002°38'7 9.3
2014-Oct-28 22:33N 45°58' W 002°41'12 9.7
2014-Oct-28 21:16N 46°10' W 002°47'7 9.4
2014-Oct-28 20:33N 46°16' W 002°49'10 9.5
2014-Oct-28 19:33N 46°25' W 002°54'10 9.6
2014-Oct-28 18:33N 46°34' W 002°58'10 9.4
2014-Oct-28 17:27N 46°44' W 003°03'11 8.9
2014-Oct-28 16:12N 46°55' W 003°08'6 8.7
2014-Oct-28 15:33N 47°00' W 003°10'9 8.7
2014-Oct-28 14:32N 47°08' W 003°14'9 8.6
2014-Oct-28 13:33N 47°16' W 003°19'8 8.3
2014-Oct-28 12:34N 47°25' W 003°20'9 8.6
2014-Oct-28 11:34N 47°33' W 003°21'9 8.7
2014-Oct-28 10:33N 47°42' W 003°22'2 2.3
2014-Oct-28 09:31N 47°44' W 003°21'0 0.0
2014-Oct-28 08:31N 47°44' W 003°21'0 0.0
2014-Oct-28 07:31N 47°44' W 003°21'0 0.0
2014-Oct-28 06:31N 47°44' W 003°21'0 0.0
2014-Oct-28 05:31N 47°44' W 003°21'0 0.0
2014-Oct-28 04:31N 47°44' W 003°21'0 0.0
2014-Oct-28 03:31N 47°44' W 003°21'0 0.0
2014-Oct-28 02:31N 47°44' W 003°21'0 0.0
2014-Oct-28 01:31N 47°44' W 003°21'0 0.0
2014-Oct-28 00:31N 47°44' W 003°21'0 0.0
2014-Oct-27 23:31N 47°44' W 003°21'0 0.0
2014-Oct-27 22:31N 47°44' W 003°21'0 0.0
2014-Oct-27 21:31N 47°44' W 003°21'0 0.0
2014-Oct-27 20:31N 47°44' W 003°21'0 0.0
2014-Oct-27 19:31N 47°44' W 003°21'0 0.0
2014-Oct-27 18:31N 47°44' W 003°21'0 0.0
2014-Oct-27 17:31N 47°44' W 003°21'0 0.0
2014-Oct-27 16:31N 47°44' W 003°21'0 0.0
2014-Oct-27 15:31N 47°44' W 003°21'0 0.0
2014-Oct-27 14:31N 47°44' W 003°21'0 0.0
2014-Oct-27 13:31N 47°44' W 003°21'0 0.0
2014-Oct-27 12:31N 47°44' W 003°21'0 0.0
2014-Oct-27 11:31N 47°44' W 003°21'0 0.0
2014-Oct-27 10:31N 47°44' W 003°21'0 0.0
2014-Oct-27 09:31N 47°44' W 003°21'0 0.0
2014-Oct-27 08:31N 47°44' W 003°21'0 0.0
2014-Oct-27 07:31N 47°44' W 003°21'0 0.0
2014-Oct-27 06:31N 47°44' W 003°21'0 0.1
2014-Oct-27 05:33N 47°44' W 003°21'6 5.9
2014-Oct-27 04:33N 47°40' W 003°28'15 7.3
2014-Oct-27 02:33N 47°37' W 003°49'36 7.2
2014-Oct-26 21:33N 47°46' W 004°41'7 7.0
2014-Oct-26 20:33N 47°50' W 004°50'8 6.8
2014-Oct-26 19:26N 47°54' W 004°59'7 7.6
2014-Oct-26 18:33N 47°58' W 005°07'8 8.1
2014-Oct-26 17:33N 48°04' W 005°15'7 7.0
2014-Oct-26 16:33N 48°10' W 005°21'14 7.0
2014-Oct-26 14:33N 48°20' W 005°35'15 7.6
2014-Oct-26 12:33N 48°32' W 005°50'132 7.3
2014-Oct-25 18:33N 49°54' W 003°11'15 7.4
2014-Oct-25 16:32N 50°01' W 002°51'113 8.4
2014-Oct-25 03:06N 50°32' W 000°01'6 9.7
2014-Oct-25 02:32N 50°33' E 000°07'9 9.4
2014-Oct-25 01:33N 50°36' E 000°21'9 8.5
2014-Oct-25 00:33N 50°38' E 000°34'8 7.9
2014-Oct-24 23:33N 50°43' E 000°44'7 7.1
2014-Oct-24 22:33N 50°47' E 000°53'7 6.9
2014-Oct-24 21:32N 50°51' E 001°02'8 7.8
2014-Oct-24 20:32N 50°56' E 001°12'9 9.4
2014-Oct-24 19:33N 51°02' E 001°23'9 9.5
2014-Oct-24 18:33N 51°08' E 001°35'9 9.0
2014-Oct-24 17:33N 51°14' E 001°45'8 7.8
2014-Oct-24 16:33N 51°21' E 001°50'7 6.7
2014-Oct-24 15:34N 51°27' E 001°55'6 6.1
2014-Oct-24 14:33N 51°32' E 002°02'6 5.9
2014-Oct-24 13:33N 51°36' E 002°08'13 6.5
2014-Oct-24 11:30N 51°46' E 002°22'47 7.8
2014-Oct-24 05:26N 52°03' E 003°34'7 7.6
2014-Oct-24 04:33N 52°03' E 003°45'6 6.5
2014-Oct-24 03:33N 52°02' E 003°55'9 9.3
2014-Oct-24 02:33N 51°58' E 004°08'2 2.2
2014-Oct-24 01:29N 51°56' E 004°11'0 0.0
2014-Oct-24 00:29N 51°56' E 004°11'0 0.0
2014-Oct-23 23:32N 51°56' E 004°11'0 0.0
2014-Oct-23 22:32N 51°56' E 004°11'0 0.0
2014-Oct-23 21:26N 51°56' E 004°11'0 0.0
2014-Oct-23 20:26N 51°56' E 004°11'0 0.0
2014-Oct-23 19:29N 51°56' E 004°11'0 0.0
2014-Oct-23 18:32N 51°56' E 004°11'0 0.0
2014-Oct-23 17:32N 51°56' E 004°11'0 0.0
2014-Oct-23 16:29N 51°56' E 004°11'0 0.0
2014-Oct-23 15:29N 51°56' E 004°11'0 0.0
2014-Oct-23 14:32N 51°56' E 004°11'0 0.0
2014-Oct-23 13:32N 51°56' E 004°11'0 0.0
2014-Oct-23 12:32N 51°56' E 004°11'0 0.0
2014-Oct-23 11:32N 51°56' E 004°11'0 0.0
2014-Oct-23 10:32N 51°56' E 004°11'0 0.0
2014-Oct-23 09:32N 51°56' E 004°11'0 0.0
2014-Oct-23 08:32N 51°56' E 004°11'0 0.0
2014-Oct-23 07:32N 51°56' E 004°11'0 0.0
2014-Oct-23 06:32N 51°56' E 004°11'0 0.0
2014-Oct-23 05:32N 51°56' E 004°11'0 0.0
2014-Oct-23 04:32N 51°56' E 004°11'0 0.0
2014-Oct-23 03:32N 51°56' E 004°11'0 0.0
2014-Oct-23 02:32N 51°56' E 004°11'0 0.0
2014-Oct-23 01:32N 51°56' E 004°11'0 0.0
2014-Oct-23 00:32N 51°56' E 004°11'0 0.0
2014-Oct-22 23:32N 51°56' E 004°11'0 0.0
2014-Oct-22 22:32N 51°56' E 004°11'0 0.0
2014-Oct-22 21:32N 51°56' E 004°11'0 0.0
2014-Oct-22 20:32N 51°56' E 004°11'0 0.0
2014-Oct-22 19:32N 51°56' E 004°11'0 0.0
2014-Oct-22 18:32N 51°56' E 004°11'0 0.0
2014-Oct-22 17:32N 51°56' E 004°11'0 0.0
2014-Oct-22 16:29N 51°56' E 004°11'0 0.0
2014-Oct-22 15:23N 51°56' E 004°11'0 0.0
2014-Oct-22 14:32N 51°56' E 004°11'0 0.0
2014-Oct-22 13:32N 51°56' E 004°11'0 0.0
2014-Oct-22 12:32N 51°56' E 004°11'0 0.0
2014-Oct-22 11:32N 51°56' E 004°11'0 0.2
2014-Oct-22 10:32N 51°56' E 004°12'1 0.5
2014-Oct-22 09:33N 51°56' E 004°11'2 1.5
2014-Oct-22 08:31N 51°57' E 004°09'0 0.0
2014-Oct-22 07:31N 51°57' E 004°09'0 0.0
2014-Oct-22 06:31N 51°57' E 004°09'0 0.0
2014-Oct-22 05:31N 51°57' E 004°09'0 0.0
2014-Oct-22 04:31N 51°57' E 004°09'0 0.0
2014-Oct-22 03:31N 51°57' E 004°09'0 0.0
2014-Oct-22 02:31N 51°57' E 004°09'0 0.0
2014-Oct-22 01:31N 51°57' E 004°09'0 0.0
2014-Oct-22 00:31N 51°57' E 004°09'0 0.0
2014-Oct-21 23:31N 51°57' E 004°09'0 0.0
2014-Oct-21 22:31N 51°57' E 004°09'0 0.0
2014-Oct-21 21:31N 51°57' E 004°09'0 0.0
2014-Oct-21 20:28N 51°57' E 004°09'0 0.0
2014-Oct-21 19:28N 51°57' E 004°09'0 0.0
2014-Oct-21 18:31N 51°57' E 004°09'0 0.0
2014-Oct-21 17:31N 51°57' E 004°09'0 0.0
2014-Oct-21 16:31N 51°57' E 004°09'0 0.0
2014-Oct-21 15:31N 51°57' E 004°09'0 0.0
2014-Oct-21 14:28N 51°57' E 004°09'0 0.0
2014-Oct-21 13:31N 51°57' E 004°09'0 0.0
2014-Oct-21 12:31N 51°57' E 004°09'0 0.0
2014-Oct-21 11:31N 51°57' E 004°09'0 0.0
2014-Oct-21 10:31N 51°57' E 004°09'0 0.0
2014-Oct-21 09:31N 51°57' E 004°09'0 0.0
2014-Oct-21 08:31N 51°57' E 004°09'0 0.0
2014-Oct-21 07:31N 51°57' E 004°09'0 0.0
2014-Oct-21 06:31N 51°57' E 004°09'0 0.0
2014-Oct-21 05:31N 51°57' E 004°09'0 0.0
2014-Oct-21 04:31N 51°57' E 004°09'0 0.0
2014-Oct-21 03:31N 51°57' E 004°09'0 0.0
2014-Oct-21 02:28N 51°57' E 004°09'0 0.0
2014-Oct-21 01:31N 51°57' E 004°09'0 0.0
2014-Oct-21 00:31N 51°57' E 004°09'  

Dump ship's entire track history